sensor_id;sensor_type;location;lat;lon;timestamp;pressure;altitude;pressure_sealevel;temperature;humidity
48517;BME280;34310;51.904;4.256;2022-07-21T00:00:29;101819.28;;;26.49;53.33
48517;BME280;34310;51.904;4.256;2022-07-21T00:02:57;101821.03;;;26.47;53.46
48517;BME280;34310;51.904;4.256;2022-07-21T00:05:25;101818.34;;;26.45;53.68
48517;BME280;34310;51.904;4.256;2022-07-21T00:07:53;101806.00;;;26.46;53.53
48517;BME280;34310;51.904;4.256;2022-07-21T00:10:24;101809.47;;;26.43;53.67
48517;BME280;34310;51.904;4.256;2022-07-21T00:12:53;101808.59;;;26.43;53.67
48517;BME280;34310;51.904;4.256;2022-07-21T00:15:24;101815.63;;;26.42;53.55
48517;BME280;34310;51.904;4.256;2022-07-21T00:17:52;101809.41;;;26.40;53.63
48517;BME280;34310;51.904;4.256;2022-07-21T00:20:20;101813.81;;;26.40;53.76
48517;BME280;34310;51.904;4.256;2022-07-21T00:22:47;101809.38;;;26.39;53.52
48517;BME280;34310;51.904;4.256;2022-07-21T00:25:15;101814.66;;;26.37;53.64
48517;BME280;34310;51.904;4.256;2022-07-21T00:27:43;101819.94;;;26.37;53.65
48517;BME280;34310;51.904;4.256;2022-07-21T00:30:11;101817.25;;;26.36;53.83
48517;BME280;34310;51.904;4.256;2022-07-21T00:32:39;101800.44;;;26.34;53.75
48517;BME280;34310;51.904;4.256;2022-07-21T00:35:08;101796.88;;;26.33;54.01
48517;BME280;34310;51.904;4.256;2022-07-21T00:37:36;101792.44;;;26.32;53.79
48517;BME280;34310;51.904;4.256;2022-07-21T00:40:06;101789.78;;;26.32;53.98
48517;BME280;34310;51.904;4.256;2022-07-21T00:42:33;101787.09;;;26.31;54.08
48517;BME280;34310;51.904;4.256;2022-07-21T00:45:02;101784.44;;;26.31;53.96
48517;BME280;34310;51.904;4.256;2022-07-21T00:47:31;101783.50;;;26.29;53.71
48517;BME280;34310;51.904;4.256;2022-07-21T00:50:01;101788.00;;;26.31;53.77
48517;BME280;34310;51.904;4.256;2022-07-21T00:52:29;101780.91;;;26.30;54.12
48517;BME280;34310;51.904;4.256;2022-07-21T00:54:56;101776.47;;;26.29;54.05
48517;BME280;34310;51.904;4.256;2022-07-21T00:57:23;101781.72;;;26.28;54.01
48517;BME280;34310;51.904;4.256;2022-07-21T00:59:51;101785.22;;;26.27;54.12
48517;BME280;34310;51.904;4.256;2022-07-21T01:02:19;101790.53;;;26.27;54.00
48517;BME280;34310;51.904;4.256;2022-07-21T01:04:46;101782.53;;;26.23;54.26
48517;BME280;34310;51.904;4.256;2022-07-21T01:07:13;101786.06;;;26.24;54.09
48517;BME280;34310;51.904;4.256;2022-07-21T01:09:41;101791.34;;;26.24;54.01
48517;BME280;34310;51.904;4.256;2022-07-21T01:12:09;101784.28;;;26.23;54.08
48517;BME280;34310;51.904;4.256;2022-07-21T01:14:38;101793.97;;;26.22;54.29
48517;BME280;34310;51.904;4.256;2022-07-21T01:17:05;101786.00;;;26.21;53.99
48517;BME280;34310;51.904;4.256;2022-07-21T01:19:33;101785.09;;;26.20;53.91
48517;BME280;34310;51.904;4.256;2022-07-21T01:22:00;101786.81;;;26.18;54.35
48517;BME280;34310;51.904;4.256;2022-07-21T01:24:28;101787.72;;;26.19;53.98
48517;BME280;34310;51.904;4.256;2022-07-21T01:26:55;101785.06;;;26.19;54.40
48517;BME280;34310;51.904;4.256;2022-07-21T01:29:24;101783.31;;;26.19;54.25
48517;BME280;34310;51.904;4.256;2022-07-21T01:31:52;101785.94;;;26.18;54.05
48517;BME280;34310;51.904;4.256;2022-07-21T01:34:19;101788.59;;;26.18;54.10
48517;BME280;34310;51.904;4.256;2022-07-21T01:36:47;101785.00;;;26.16;54.44
48517;BME280;34310;51.904;4.256;2022-07-21T01:39:14;101788.50;;;26.15;54.44
48517;BME280;34310;51.904;4.256;2022-07-21T01:42:00;101791.16;;;26.15;54.43
48517;BME280;34310;51.904;4.256;2022-07-21T01:44:28;101781.44;;;26.14;54.28
48517;BME280;34310;51.904;4.256;2022-07-21T01:46:56;101784.91;;;26.11;54.29
48517;BME280;34310;51.904;4.256;2022-07-21T01:49:23;101780.50;;;26.12;54.38
48517;BME280;34310;51.904;4.256;2022-07-21T01:51:51;101776.06;;;26.11;54.52
48517;BME280;34310;51.904;4.256;2022-07-21T01:54:18;101779.59;;;26.10;54.32
48517;BME280;34310;51.904;4.256;2022-07-21T01:56:51;101771.66;;;26.10;54.36
48517;BME280;34310;51.904;4.256;2022-07-21T01:59:19;101778.66;;;26.08;54.63
48517;BME280;34310;51.904;4.256;2022-07-21T02:01:46;101777.78;;;26.07;54.58
48517;BME280;34310;51.904;4.256;2022-07-21T02:04:14;101777.75;;;26.06;54.65
48517;BME280;34310;51.904;4.256;2022-07-21T02:06:42;101775.97;;;26.06;54.50
48517;BME280;34310;51.904;4.256;2022-07-21T02:09:09;101762.72;;;26.05;54.66
48517;BME280;34310;51.904;4.256;2022-07-21T02:11:37;101746.84;;;26.05;54.65
48517;BME280;34310;51.904;4.256;2022-07-21T02:14:05;101752.13;;;26.05;54.39
48517;BME280;34310;51.904;4.256;2022-07-21T02:16:32;101752.09;;;26.03;54.65
48517;BME280;34310;51.904;4.256;2022-07-21T02:19:00;101745.03;;;26.02;54.34
48517;BME280;34310;51.904;4.256;2022-07-21T02:21:28;101749.38;;;26.02;54.61
48517;BME280;34310;51.904;4.256;2022-07-21T02:23:55;101756.44;;;26.01;54.74
48517;BME280;34310;51.904;4.256;2022-07-21T02:26:22;101755.59;;;26.02;54.51
48517;BME280;34310;51.904;4.256;2022-07-21T02:28:50;101756.44;;;26.01;54.49
48517;BME280;34310;51.904;4.256;2022-07-21T02:31:18;101759.94;;;26.00;54.79
48517;BME280;34310;51.904;4.256;2022-07-21T02:33:45;101759.03;;;26.00;54.52
48517;BME280;34310;51.904;4.256;2022-07-21T02:36:12;101759.91;;;25.99;54.82
48517;BME280;34310;51.904;4.256;2022-07-21T02:38:40;101752.88;;;25.99;54.54
48517;BME280;34310;51.904;4.256;2022-07-21T02:41:07;101748.41;;;25.97;54.61
48517;BME280;34310;51.904;4.256;2022-07-21T02:43:35;101743.09;;;25.97;54.79
48517;BME280;34310;51.904;4.256;2022-07-21T02:46:02;101742.22;;;25.96;54.82
48517;BME280;34310;51.904;4.256;2022-07-21T02:48:29;101739.53;;;25.94;54.54
48517;BME280;34310;51.904;4.256;2022-07-21T02:50:57;101739.53;;;25.94;54.92
48517;BME280;34310;51.904;4.256;2022-07-21T02:53:24;101735.09;;;25.93;54.92
48517;BME280;34310;51.904;4.256;2022-07-21T02:55:52;101729.81;;;25.93;54.77
48517;BME280;34310;51.904;4.256;2022-07-21T02:58:23;101735.97;;;25.92;54.68
48517;BME280;34310;51.904;4.256;2022-07-21T03:00:53;101730.66;;;25.92;54.57
48517;BME280;34310;51.904;4.256;2022-07-21T03:03:22;101731.56;;;25.93;55.01
48517;BME280;34310;51.904;4.256;2022-07-21T03:05:50;101725.34;;;25.91;54.89
48517;BME280;34310;51.904;4.256;2022-07-21T03:08:19;101727.13;;;25.92;54.85
48517;BME280;34310;51.904;4.256;2022-07-21T03:10:47;101732.38;;;25.90;54.94
48517;BME280;34310;51.904;4.256;2022-07-21T03:13:14;101730.63;;;25.91;54.76
48517;BME280;34310;51.904;4.256;2022-07-21T03:15:42;101732.38;;;25.90;54.94
48517;BME280;34310;51.904;4.256;2022-07-21T03:18:10;101742.09;;;25.90;54.75
48517;BME280;34310;51.904;4.256;2022-07-21T03:20:40;101735.91;;;25.89;54.95
48517;BME280;34310;51.904;4.256;2022-07-21T03:23:09;101739.41;;;25.88;54.98
48517;BME280;34310;51.904;4.256;2022-07-21T03:25:36;101744.69;;;25.88;54.82
48517;BME280;34310;51.904;4.256;2022-07-21T03:28:04;101741.16;;;25.88;54.98
48517;BME280;34310;51.904;4.256;2022-07-21T03:30:32;101741.16;;;25.88;54.92
48517;BME280;34310;51.904;4.256;2022-07-21T03:32:59;101743.81;;;25.88;54.98
48517;BME280;34310;51.904;4.256;2022-07-21T03:35:27;101732.28;;;25.86;55.15
48517;BME280;34310;51.904;4.256;2022-07-21T03:37:57;101741.97;;;25.85;55.06
48517;BME280;34310;51.904;4.256;2022-07-21T03:40:29;101746.41;;;25.86;55.10
48517;BME280;34310;51.904;4.256;2022-07-21T03:42:59;101744.63;;;25.85;55.03
48517;BME280;34310;51.904;4.256;2022-07-21T03:45:28;101747.25;;;25.84;55.09
48517;BME280;34310;51.904;4.256;2022-07-21T03:47:59;101744.59;;;25.84;55.23
48517;BME280;34310;51.904;4.256;2022-07-21T03:50:27;101740.19;;;25.84;55.02
48517;BME280;34310;51.904;4.256;2022-07-21T03:52:55;101736.66;;;25.84;54.85
48517;BME280;34310;51.904;4.256;2022-07-21T03:55:23;101726.94;;;25.83;55.03
48517;BME280;34310;51.904;4.256;2022-07-21T03:58:06;101729.59;;;25.83;55.33
48517;BME280;34310;51.904;4.256;2022-07-21T04:00:39;101731.34;;;25.82;55.04
48517;BME280;34310;51.904;4.256;2022-07-21T04:03:07;101743.66;;;25.82;55.21
48517;BME280;34310;51.904;4.256;2022-07-21T04:05:36;101738.34;;;25.80;55.24
48517;BME280;34310;51.904;4.256;2022-07-21T04:08:05;101746.28;;;25.80;55.31
48517;BME280;34310;51.904;4.256;2022-07-21T04:10:35;101739.19;;;25.79;55.38
48517;BME280;34310;51.904;4.256;2022-07-21T04:13:05;101743.59;;;25.79;55.30
48517;BME280;34310;51.904;4.256;2022-07-21T04:15:33;101751.50;;;25.77;55.40
48517;BME280;34310;51.904;4.256;2022-07-21T04:18:00;101760.34;;;25.78;55.28
48517;BME280;34310;51.904;4.256;2022-07-21T04:20:28;101759.44;;;25.77;55.39
48517;BME280;34310;51.904;4.256;2022-07-21T04:22:55;101760.31;;;25.76;55.37
48517;BME280;34310;51.904;4.256;2022-07-21T04:25:23;101752.38;;;25.76;55.33
48517;BME280;34310;51.904;4.256;2022-07-21T04:27:51;101758.53;;;25.77;55.48
48517;BME280;34310;51.904;4.256;2022-07-21T04:30:22;101759.38;;;25.74;55.25
48517;BME280;34310;51.904;4.256;2022-07-21T04:32:49;101763.81;;;25.75;55.42
48517;BME280;34310;51.904;4.256;2022-07-21T04:35:17;101759.41;;;25.76;55.36
48517;BME280;34310;51.904;4.256;2022-07-21T04:37:45;101768.19;;;25.75;55.55
48517;BME280;34310;51.904;4.256;2022-07-21T04:40:13;101763.78;;;25.74;55.22
48517;BME280;34310;51.904;4.256;2022-07-21T04:42:41;101770.78;;;25.73;55.29
48517;BME280;34310;51.904;4.256;2022-07-21T04:45:10;101775.25;;;25.74;55.29
48517;BME280;34310;51.904;4.256;2022-07-21T04:47:49;101766.34;;;25.72;55.73
48517;BME280;34310;51.904;4.256;2022-07-21T04:50:19;101774.28;;;25.72;55.23
48517;BME280;34310;51.904;4.256;2022-07-21T04:52:47;101774.25;;;25.71;55.38
48517;BME280;34310;51.904;4.256;2022-07-21T04:55:15;101769.81;;;25.70;55.47
48517;BME280;34310;51.904;4.256;2022-07-21T04:57:44;101785.69;;;25.70;55.53
48517;BME280;34310;51.904;4.256;2022-07-21T05:00:15;101776.81;;;25.68;55.62
48517;BME280;34310;51.904;4.256;2022-07-21T05:02:43;101780.34;;;25.68;55.72
48517;BME280;34310;51.904;4.256;2022-07-21T05:05:11;101781.25;;;25.69;55.51
48517;BME280;34310;51.904;4.256;2022-07-21T05:07:39;101778.56;;;25.67;55.60
48517;BME280;34310;51.904;4.256;2022-07-21T05:10:08;101775.94;;;25.67;55.74
48517;BME280;34310;51.904;4.256;2022-07-21T05:12:36;101772.38;;;25.67;55.58
48517;BME280;34310;51.904;4.256;2022-07-21T05:15:06;101777.63;;;25.65;55.76
48517;BME280;34310;51.904;4.256;2022-07-21T05:17:33;101775.84;;;25.66;55.40
48517;BME280;34310;51.904;4.256;2022-07-21T05:20:02;101771.47;;;25.66;55.53
48517;BME280;34310;51.904;4.256;2022-07-21T05:22:29;101770.56;;;25.66;55.41
48517;BME280;34310;51.904;4.256;2022-07-21T05:24:57;101770.56;;;25.66;55.68
48517;BME280;34310;51.904;4.256;2022-07-21T05:27:24;101769.69;;;25.65;55.46
48517;BME280;34310;51.904;4.256;2022-07-21T05:29:51;101769.63;;;25.63;55.57
48517;BME280;34310;51.904;4.256;2022-07-21T05:32:19;101773.19;;;25.64;55.72
48517;BME280;34310;51.904;4.256;2022-07-21T05:34:46;101774.94;;;25.63;55.84
48517;BME280;34310;51.904;4.256;2022-07-21T05:37:14;101769.59;;;25.62;55.73
48517;BME280;34310;51.904;4.256;2022-07-21T05:39:41;101776.66;;;25.61;55.55
48517;BME280;34310;51.904;4.256;2022-07-21T05:42:08;101777.50;;;25.60;55.98
48517;BME280;34310;51.904;4.256;2022-07-21T05:44:36;101780.16;;;25.60;55.85
48517;BME280;34310;51.904;4.256;2022-07-21T05:47:03;101783.69;;;25.61;55.93
48517;BME280;34310;51.904;4.256;2022-07-21T05:49:30;101784.53;;;25.60;55.99
48517;BME280;34310;51.904;4.256;2022-07-21T05:51:58;101787.16;;;25.58;55.66
48517;BME280;34310;51.904;4.256;2022-07-21T05:54:25;101787.16;;;25.58;55.76
48517;BME280;34310;51.904;4.256;2022-07-21T05:56:52;101780.97;;;25.58;56.04
48517;BME280;34310;51.904;4.256;2022-07-21T05:59:20;101786.25;;;25.58;56.02
48517;BME280;34310;51.904;4.256;2022-07-21T06:01:47;101790.66;;;25.57;55.88
48517;BME280;34310;51.904;4.256;2022-07-21T06:04:14;101790.66;;;25.57;56.04
48517;BME280;34310;51.904;4.256;2022-07-21T06:06:42;101789.75;;;25.57;56.12
48517;BME280;34310;51.904;4.256;2022-07-21T06:09:09;101788.00;;;25.57;55.94
48517;BME280;34310;51.904;4.256;2022-07-21T06:11:36;101792.41;;;25.57;56.22
48517;BME280;34310;51.904;4.256;2022-07-21T06:14:04;101793.25;;;25.56;55.87
48517;BME280;34310;51.904;4.256;2022-07-21T06:16:32;101794.97;;;25.54;55.97
48517;BME280;34310;51.904;4.256;2022-07-21T06:18:59;101795.81;;;25.51;55.80
48517;BME280;34310;51.904;4.256;2022-07-21T06:21:29;101791.38;;;25.50;56.10
48517;BME280;34310;51.904;4.256;2022-07-21T06:23:57;101787.78;;;25.48;56.09
48517;BME280;34310;51.904;4.256;2022-07-21T06:26:25;101793.94;;;25.47;56.26
48517;BME280;34310;51.904;4.256;2022-07-21T06:28:53;101791.28;;;25.47;56.09
48517;BME280;34310;51.904;4.256;2022-07-21T06:31:21;101793.03;;;25.47;56.21
48517;BME280;34310;51.904;4.256;2022-07-21T06:33:48;101792.13;;;25.45;56.30
48517;BME280;34310;51.904;4.256;2022-07-21T06:36:16;101788.63;;;25.46;56.05
48517;BME280;34310;51.904;4.256;2022-07-21T06:38:44;101784.19;;;25.45;56.02
48517;BME280;34310;51.904;4.256;2022-07-21T06:41:12;101793.00;;;25.45;55.95
48517;BME280;34310;51.904;4.256;2022-07-21T06:43:39;101791.25;;;25.46;55.91
48517;BME280;34310;51.904;4.256;2022-07-21T06:46:07;101796.53;;;25.46;55.95
48517;BME280;34310;51.904;4.256;2022-07-21T06:48:34;101787.66;;;25.44;55.89
48517;BME280;34310;51.904;4.256;2022-07-21T06:51:02;101794.69;;;25.43;55.88
48517;BME280;34310;51.904;4.256;2022-07-21T06:53:29;101805.25;;;25.43;56.03
48517;BME280;34310;51.904;4.256;2022-07-21T06:55:57;101803.47;;;25.42;56.08
48517;BME280;34310;51.904;4.256;2022-07-21T06:58:30;101805.22;;;25.42;55.79
48517;BME280;34310;51.904;4.256;2022-07-21T07:01:06;101806.13;;;25.42;55.91
48517;BME280;34310;51.904;4.256;2022-07-21T07:03:35;101811.38;;;25.41;55.64
48517;BME280;34310;51.904;4.256;2022-07-21T07:45:07;101848.06;;;25.61;56.49
48517;BME280;34310;51.904;4.256;2022-07-21T07:47:35;101846.34;;;25.63;56.94
48517;BME280;34310;51.904;4.256;2022-07-21T07:50:04;101848.94;;;25.62;56.56
48517;BME280;34310;51.904;4.256;2022-07-21T07:52:32;101852.63;;;25.67;57.25
48517;BME280;34310;51.904;4.256;2022-07-21T07:55:00;101851.84;;;25.71;57.28
48517;BME280;34310;51.904;4.256;2022-07-21T07:57:34;101843.13;;;25.74;57.23
48517;BME280;34310;51.904;4.256;2022-07-21T08:00:04;101841.41;;;25.76;57.15
48517;BME280;34310;51.904;4.256;2022-07-21T08:02:53;101849.41;;;25.79;56.79
48517;BME280;34310;51.904;4.256;2022-07-21T08:05:20;101847.69;;;25.81;56.96
48517;BME280;34310;51.904;4.256;2022-07-21T08:07:47;101849.56;;;25.85;57.19
48517;BME280;34310;51.904;4.256;2022-07-21T08:10:15;101856.63;;;25.86;56.83
48517;BME280;34310;51.904;4.256;2022-07-21T08:13:02;101848.69;;;25.86;56.92
48517;BME280;34310;51.904;4.256;2022-07-21T08:15:34;101855.78;;;25.87;56.88
48517;BME280;34310;51.904;4.256;2022-07-21T08:18:02;101853.13;;;25.87;56.68
48517;BME280;34310;51.904;4.256;2022-07-21T08:20:29;101860.19;;;25.86;56.58
48517;BME280;34310;51.904;4.256;2022-07-21T08:22:56;101857.53;;;25.86;56.71
48517;BME280;34310;51.904;4.256;2022-07-21T08:25:24;101859.31;;;25.87;56.68
48517;BME280;34310;51.904;4.256;2022-07-21T08:27:51;101860.25;;;25.89;56.31
48517;BME280;34310;51.904;4.256;2022-07-21T08:30:18;101862.94;;;25.91;56.68
48517;BME280;34310;51.904;4.256;2022-07-21T08:32:50;101862.13;;;25.93;56.31
48517;BME280;34310;51.904;4.256;2022-07-21T08:35:18;101859.47;;;25.93;56.26
48517;BME280;34310;51.904;4.256;2022-07-21T08:37:54;101868.28;;;25.94;56.31
48517;BME280;34310;51.904;4.256;2022-07-21T08:40:23;101858.56;;;25.93;56.26
48517;BME280;34310;51.904;4.256;2022-07-21T08:42:52;101861.25;;;25.94;56.33
48517;BME280;34310;51.904;4.256;2022-07-21T08:45:21;101863.06;;;25.97;56.00
48517;BME280;34310;51.904;4.256;2022-07-21T08:47:53;101868.41;;;25.99;55.78
48517;BME280;34310;51.904;4.256;2022-07-21T08:50:27;101866.53;;;25.94;55.76
48517;BME280;34310;51.904;4.256;2022-07-21T08:52:55;101876.13;;;25.89;55.69
48517;BME280;34310;51.904;4.256;2022-07-21T08:55:34;101871.56;;;25.82;55.40
48517;BME280;34310;51.904;4.256;2022-07-21T08:58:03;101872.25;;;25.75;54.88
48517;BME280;34310;51.904;4.256;2022-07-21T09:00:36;101874.75;;;25.71;54.63
48517;BME280;34310;51.904;4.256;2022-07-21T09:03:23;101875.53;;;25.67;54.36
48517;BME280;34310;51.904;4.256;2022-07-21T09:06:04;101871.06;;;25.66;54.21
48517;BME280;34310;51.904;4.256;2022-07-21T09:08:40;101880.72;;;25.63;54.13
48517;BME280;34310;51.904;4.256;2022-07-21T09:11:21;101878.91;;;25.61;54.19
48517;BME280;34310;51.904;4.256;2022-07-21T09:16:44;101884.88;;;25.54;53.98
48517;BME280;34310;51.904;4.256;2022-07-21T09:19:21;101883.88;;;25.49;53.65
48517;BME280;34310;51.904;4.256;2022-07-21T09:21:50;101882.06;;;25.46;54.02
48517;BME280;34310;51.904;4.256;2022-07-21T09:29:43;101886.25;;;25.40;53.84
48517;BME280;34310;51.904;4.256;2022-07-21T09:34:51;101895.94;;;25.39;53.99
48517;BME280;34310;51.904;4.256;2022-07-21T09:37:20;101889.72;;;25.37;54.09
48517;BME280;34310;51.904;4.256;2022-07-21T09:39:54;101897.59;;;25.36;54.30
48517;BME280;34310;51.904;4.256;2022-07-21T09:42:29;101899.34;;;25.35;54.29
48517;BME280;34310;51.904;4.256;2022-07-21T09:45:02;101899.28;;;25.32;54.20
48517;BME280;34310;51.904;4.256;2022-07-21T09:47:31;101906.28;;;25.30;54.38
48517;BME280;34310;51.904;4.256;2022-07-21T09:50:00;101902.69;;;25.28;54.77
48517;BME280;34310;51.904;4.256;2022-07-21T09:52:48;101904.34;;;25.24;54.32
48517;BME280;34310;51.904;4.256;2022-07-21T09:55:19;101920.25;;;25.26;54.52
48517;BME280;34310;51.904;4.256;2022-07-21T09:57:47;101912.31;;;25.26;54.65
48517;BME280;34310;51.904;4.256;2022-07-21T10:00:19;101915.91;;;25.28;54.51
48517;BME280;34310;51.904;4.256;2022-07-21T10:02:48;101921.16;;;25.26;54.39
48517;BME280;34310;51.904;4.256;2022-07-21T10:05:19;101935.22;;;25.25;54.40
48517;BME280;34310;51.904;4.256;2022-07-21T10:07:55;101932.53;;;25.24;54.37
48517;BME280;34310;51.904;4.256;2022-07-21T10:10:24;101932.53;;;25.24;54.30
48517;BME280;34310;51.904;4.256;2022-07-21T10:13:11;101935.09;;;25.21;54.43
48517;BME280;34310;51.904;4.256;2022-07-21T10:15:40;101932.38;;;25.18;54.46
48517;BME280;34310;51.904;4.256;2022-07-21T10:18:08;101940.34;;;25.19;54.56
48517;BME280;34310;51.904;4.256;2022-07-21T10:20:37;101934.97;;;25.16;54.78
48517;BME280;34310;51.904;4.256;2022-07-21T10:25:46;101935.66;;;25.11;54.82
48517;BME280;34310;51.904;4.256;2022-07-21T10:30:43;101941.06;;;25.15;54.80
48517;BME280;34310;51.904;4.256;2022-07-21T10:33:12;101949.94;;;25.16;54.43
48517;BME280;34310;51.904;4.256;2022-07-21T10:35:48;101945.53;;;25.16;54.49
48517;BME280;34310;51.904;4.256;2022-07-21T10:38:29;101956.13;;;25.16;54.47
48517;BME280;34310;51.904;4.256;2022-07-21T10:40:58;101948.06;;;25.13;54.61
48517;BME280;34310;51.904;4.256;2022-07-21T10:45:58;101951.47;;;25.09;54.99
48517;BME280;34310;51.904;4.256;2022-07-21T10:51:08;101961.25;;;25.12;55.12
48517;BME280;34310;51.904;4.256;2022-07-21T10:53:36;101960.25;;;25.08;54.92
48517;BME280;34310;51.904;4.256;2022-07-21T10:56:04;101964.69;;;25.09;55.10
48517;BME280;34310;51.904;4.256;2022-07-21T10:58:39;101961.25;;;25.12;55.05
48517;BME280;34310;51.904;4.256;2022-07-21T11:01:20;101966.47;;;25.10;54.90
48517;BME280;34310;51.904;4.256;2022-07-21T11:04:07;101976.13;;;25.08;55.07
48517;BME280;34310;51.904;4.256;2022-07-21T11:06:39;101977.00;;;25.09;55.01
48517;BME280;34310;51.904;4.256;2022-07-21T11:09:11;101985.78;;;25.08;55.05
48517;BME280;34310;51.904;4.256;2022-07-21T11:19:41;101987.41;;;25.02;54.96
48517;BME280;34310;51.904;4.256;2022-07-21T11:22:26;102002.38;;;25.02;54.97
48517;BME280;34310;51.904;4.256;2022-07-21T11:25:05;101998.78;;;25.00;54.57
48517;BME280;34310;51.904;4.256;2022-07-21T11:27:37;102004.56;;;24.88;55.15
48517;BME280;34310;51.904;4.256;2022-07-21T11:30:09;102003.44;;;24.82;55.32
48517;BME280;34310;51.904;4.256;2022-07-21T11:32:37;102005.97;;;24.77;55.44
48517;BME280;34310;51.904;4.256;2022-07-21T11:35:06;102003.31;;;24.77;55.34
48517;BME280;34310;51.904;4.256;2022-07-21T11:37:43;102003.25;;;24.76;55.47
48517;BME280;34310;51.904;4.256;2022-07-21T11:40:15;102009.44;;;24.76;55.50
48517;BME280;34310;51.904;4.256;2022-07-21T11:42:46;102006.72;;;24.73;55.54
48517;BME280;34310;51.904;4.256;2022-07-21T11:45:14;102007.59;;;24.74;55.60
48517;BME280;34310;51.904;4.256;2022-07-21T11:47:42;102005.91;;;24.76;55.52
48517;BME280;34310;51.904;4.256;2022-07-21T11:50:18;102012.94;;;24.75;55.67
48517;BME280;34310;51.904;4.256;2022-07-21T11:52:45;102005.88;;;24.74;55.54
48517;BME280;34310;51.904;4.256;2022-07-21T11:55:14;102008.50;;;24.74;55.46
48517;BME280;34310;51.904;4.256;2022-07-21T11:57:45;102017.28;;;24.73;55.66
48517;BME280;34310;51.904;4.256;2022-07-21T12:00:14;102006.75;;;24.75;55.65
48517;BME280;34310;51.904;4.256;2022-07-21T12:02:43;102018.06;;;24.70;55.50
48517;BME280;34310;51.904;4.256;2022-07-21T12:05:11;102013.97;;;24.80;55.39
48517;BME280;34310;51.904;4.256;2022-07-21T12:07:43;102016.78;;;24.86;55.20
48517;BME280;34310;51.904;4.256;2022-07-21T12:12:45;102029.09;;;24.86;55.08
48517;BME280;34310;51.904;4.256;2022-07-21T12:15:24;102027.44;;;24.88;55.42
48517;BME280;34310;51.904;4.256;2022-07-21T12:17:58;102026.53;;;24.87;55.35
48517;BME280;34310;51.904;4.256;2022-07-21T12:23:02;102023.94;;;24.89;55.35
48517;BME280;34310;51.904;4.256;2022-07-21T12:25:38;102031.03;;;24.90;55.20
48517;BME280;34310;51.904;4.256;2022-07-21T12:28:07;102030.13;;;24.89;55.06
48517;BME280;34310;51.904;4.256;2022-07-21T12:30:38;102032.72;;;24.88;55.02
48517;BME280;34310;51.904;4.256;2022-07-21T12:33:12;102046.72;;;24.85;55.23
48517;BME280;34310;51.904;4.256;2022-07-21T12:35:43;102039.59;;;24.83;55.38
48517;BME280;34310;51.904;4.256;2022-07-21T12:38:15;102043.06;;;24.82;55.34
48517;BME280;34310;51.904;4.256;2022-07-21T12:40:48;102048.34;;;24.82;55.16
48517;BME280;34310;51.904;4.256;2022-07-21T12:43:37;102056.22;;;24.80;54.98
48517;BME280;34310;51.904;4.256;2022-07-21T12:46:13;102053.53;;;24.79;54.68
48517;BME280;34310;51.904;4.256;2022-07-21T12:48:47;102061.47;;;24.79;54.87
48517;BME280;34310;51.904;4.256;2022-07-21T12:51:20;102056.94;;;24.75;54.89
48517;BME280;34310;51.904;4.256;2022-07-21T12:53:52;102062.19;;;24.73;55.03
48517;BME280;34310;51.904;4.256;2022-07-21T12:56:31;102058.63;;;24.73;54.96
48517;BME280;34310;51.904;4.256;2022-07-21T12:59:00;102062.13;;;24.71;55.10
48517;BME280;34310;51.904;4.256;2022-07-21T13:01:29;102072.75;;;24.73;54.39
48517;BME280;34310;51.904;4.256;2022-07-21T13:03:59;102077.03;;;24.69;54.42
48517;BME280;34310;51.904;4.256;2022-07-21T13:06:26;102074.25;;;24.65;54.80
48517;BME280;34310;51.904;4.256;2022-07-21T13:08:54;102067.78;;;24.57;54.55
48517;BME280;34310;51.904;4.256;2022-07-21T13:11:22;102080.03;;;24.55;54.59
48517;BME280;34310;51.904;4.256;2022-07-21T13:13:51;102071.13;;;24.51;54.57
48517;BME280;34310;51.904;4.256;2022-07-21T13:16:19;102083.44;;;24.51;54.85
48517;BME280;34310;51.904;4.256;2022-07-21T13:18:51;102084.28;;;24.50;54.65
48517;BME280;34310;51.904;4.256;2022-07-21T13:21:19;102090.47;;;24.50;54.42
48517;BME280;34310;51.904;4.256;2022-07-21T13:23:46;102093.00;;;24.47;54.73
48517;BME280;34310;51.904;4.256;2022-07-21T13:26:14;102101.00;;;24.50;54.64
48517;BME280;34310;51.904;4.256;2022-07-21T13:28:41;102092.28;;;24.53;54.53
48517;BME280;34310;51.904;4.256;2022-07-21T13:31:09;102094.09;;;24.54;54.21
48517;BME280;34310;51.904;4.256;2022-07-21T13:33:38;102112.63;;;24.55;54.07
48517;BME280;34310;51.904;4.256;2022-07-21T13:36:06;102096.72;;;24.54;54.33
48517;BME280;34310;51.904;4.256;2022-07-21T13:38:35;102104.66;;;24.54;54.19
48517;BME280;34310;51.904;4.256;2022-07-21T13:41:02;102115.16;;;24.52;54.25
48517;BME280;34310;51.904;4.256;2022-07-21T13:43:50;102105.56;;;24.54;54.56
48517;BME280;34310;51.904;4.256;2022-07-21T13:46:18;102111.69;;;24.53;54.98
48517;BME280;34310;51.904;4.256;2022-07-21T13:48:45;102106.50;;;24.56;54.67
48517;BME280;34310;51.904;4.256;2022-07-21T13:51:14;102106.59;;;24.58;54.66
48517;BME280;34310;51.904;4.256;2022-07-21T13:53:43;102110.03;;;24.57;54.80
48517;BME280;34310;51.904;4.256;2022-07-21T13:56:11;102114.38;;;24.55;55.00
48517;BME280;34310;51.904;4.256;2022-07-21T13:58:39;102115.22;;;24.54;55.03
48517;BME280;34310;51.904;4.256;2022-07-21T14:01:08;102116.06;;;24.53;54.81
48517;BME280;34310;51.904;4.256;2022-07-21T14:03:36;102122.25;;;24.53;54.92
48517;BME280;34310;51.904;4.256;2022-07-21T14:06:04;102113.38;;;24.51;54.99
48517;BME280;34310;51.904;4.256;2022-07-21T14:08:31;102128.31;;;24.51;54.97
48517;BME280;34310;51.904;4.256;2022-07-21T14:10:58;102132.66;;;24.49;54.89
48517;BME280;34310;51.904;4.256;2022-07-21T14:13:26;102122.94;;;24.48;54.81
48517;BME280;34310;51.904;4.256;2022-07-21T14:15:53;102130.84;;;24.48;54.92